Time;durP1;ratioP1;P1;durP2;ratioP2;P2;SDS_P1;SDS_P2;PMS_P1;PMS_P2;Temp;Humidity;BMP_temperature;BMP_pressure;BME280_temperature;BME280_humidity;BME280_pressure;Samples;Min_cycle;Max_cycle;Signal;HPM_P1;HPM_P2
2023/10/18 00:00:34;;;;;;;22.00;15.03;;;4.40;59.60;;;;;;5053351;28;20229;-70
2023/10/18 00:03:01;;;;;;;22.17;17.08;;;4.40;60.00;;;;;;5054586;28;20185;-70
2023/10/18 00:05:28;;;;;;;19.67;15.40;;;4.40;60.60;;;;;;5054294;28;20237;-71
2023/10/18 00:07:57;;;;;;;21.13;15.38;;;4.50;59.60;;;;;;5054380;28;20634;-70
2023/10/18 00:10:23;;;;;;;17.52;13.10;;;4.50;60.20;;;;;;5054544;28;20200;-72
2023/10/18 00:12:49;;;;;;;22.42;17.23;;;4.50;58.70;;;;;;5054442;28;20516;-70
2023/10/18 00:15:14;;;;;;;21.80;16.17;;;4.50;58.30;;;;;;5052959;28;20202;-70
2023/10/18 00:17:40;;;;;;;26.33;18.50;;;4.50;57.50;;;;;;5054071;28;20969;-70
2023/10/18 00:20:13;;;;;;;26.17;18.53;;;4.40;57.40;;;;;;5054152;28;20566;-70
2023/10/18 00:22:40;;;;;;;23.10;16.58;;;4.40;60.00;;;;;;5053034;28;20178;-71
2023/10/18 00:25:06;;;;;;;25.98;17.92;;;4.40;59.40;;;;;;5054438;28;20654;-71
2023/10/18 00:27:32;;;;;;;24.52;16.08;;;4.30;60.80;;;;;;5052643;28;20644;-71
2023/10/18 00:29:58;;;;;;;23.73;19.02;;;4.30;60.70;;;;;;5053946;28;20218;-71
2023/10/18 00:32:25;;;;;;;26.00;17.77;;;4.30;60.90;;;;;;5052724;28;20179;-71
2023/10/18 00:34:54;;;;;;;24.42;16.98;;;4.30;60.30;;;;;;5053685;28;20936;-71
2023/10/18 00:37:21;;;;;;;22.08;16.92;;;4.30;60.60;;;;;;5052473;28;20187;-71
2023/10/18 00:39:47;;;;;;;24.25;18.63;;;4.30;60.20;;;;;;5052829;28;20209;-71
2023/10/18 00:42:28;;;;;;;26.73;18.87;;;4.30;60.70;;;;;;5053798;28;20262;-71
2023/10/18 00:45:08;;;;;;;25.48;17.65;;;4.20;61.00;;;;;;5053720;28;20658;-71
2023/10/18 00:47:37;;;;;;;25.52;18.73;;;4.30;61.20;;;;;;5053561;28;20666;-71
2023/10/18 00:50:04;;;;;;;28.45;17.83;;;4.20;60.70;;;;;;5053589;28;20261;-71
2023/10/18 00:52:30;;;;;;;24.15;18.38;;;4.20;61.60;;;;;;5053509;28;20185;-71
2023/10/18 00:54:55;;;;;;;23.47;18.37;;;4.20;62.10;;;;;;5053450;28;20199;-71
2023/10/18 00:57:25;;;;;;;23.90;19.07;;;4.20;61.30;;;;;;5053190;28;20419;-71
2023/10/18 00:59:53;;;;;;;25.52;16.35;;;4.10;61.00;;;;;;5053378;28;20424;-71
2023/10/18 01:02:19;;;;;;;24.45;18.25;;;4.10;63.10;;;;;;5053332;28;20178;-71
2023/10/18 01:04:52;;;;;;;29.90;19.53;;;4.10;62.30;;;;;;5051881;28;20222;-71
2023/10/18 01:07:20;;;;;;;25.70;19.10;;;4.10;63.60;;;;;;5053141;28;20175;-70
2023/10/18 01:09:50;;;;;;;29.35;21.35;;;4.10;62.00;;;;;;5053313;28;20301;-70
2023/10/18 01:12:16;;;;;;;24.27;18.13;;;4.10;62.00;;;;;;5053203;28;20186;-70
2023/10/18 01:14:43;;;;;;;25.80;19.33;;;4.10;62.00;;;;;;5051829;28;20294;-70
2023/10/18 01:17:08;;;;;;;23.65;19.10;;;4.10;62.30;;;;;;5052963;28;20184;-70
2023/10/18 01:19:36;;;;;;;26.50;19.93;;;4.10;63.80;;;;;;5053044;28;20256;-70
2023/10/18 01:22:03;;;;;;;21.70;16.17;;;4.10;61.90;;;;;;5053143;28;20256;-70
2023/10/18 01:24:36;;;;;;;24.05;18.02;;;4.00;61.90;;;;;;5052886;28;20190;-70
2023/10/18 01:27:02;;;;;;;25.42;17.08;;;4.00;62.40;;;;;;5052802;28;20174;-70
2023/10/18 01:29:29;;;;;;;22.83;15.75;;;4.00;62.30;;;;;;5052891;28;20644;-70
2023/10/18 01:31:55;;;;;;;26.80;19.55;;;4.00;61.90;;;;;;5052962;28;20550;-70
2023/10/18 01:34:21;;;;;;;22.23;18.00;;;4.00;60.90;;;;;;5052690;28;20194;-70
2023/10/18 01:36:46;;;;;;;23.60;16.67;;;3.90;61.70;;;;;;5051304;28;20187;-70
2023/10/18 01:39:18;;;;;;;23.73;16.17;;;3.90;60.40;;;;;;5052558;28;20740;-70
2023/10/18 01:41:49;;;;;;;22.25;16.15;;;3.90;60.90;;;;;;5052763;28;20428;-71
2023/10/18 01:44:18;;;;;;;23.38;17.10;;;3.90;60.70;;;;;;5052602;28;20205;-71
2023/10/18 01:46:48;;;;;;;21.52;16.60;;;3.80;60.00;;;;;;5052397;28;20229;-71
2023/10/18 01:49:19;;;;;;;21.20;15.50;;;3.80;60.50;;;;;;5052593;28;20175;-71
2023/10/18 01:51:47;;;;;;;25.63;17.05;;;3.80;61.10;;;;;;5051313;28;20173;-71
2023/10/18 01:54:13;;;;;;;21.65;16.67;;;3.80;60.10;;;;;;5051103;28;20227;-71
2023/10/18 01:56:41;;;;;;;21.13;16.30;;;3.80;59.70;;;;;;5052130;28;20211;-71
2023/10/18 01:59:08;;;;;;;25.17;17.75;;;3.80;61.30;;;;;;5052227;28;20527;-69
2023/10/18 02:01:34;;;;;;;25.08;17.40;;;3.80;60.60;;;;;;5052221;28;20193;-70
2023/10/18 02:04:01;;;;;;;24.00;18.73;;;3.80;61.70;;;;;;5052298;28;20569;-71
2023/10/18 02:06:27;;;;;;;24.05;17.60;;;3.80;62.20;;;;;;5052144;28;20229;-70
2023/10/18 02:08:53;;;;;;;25.20;17.07;;;3.80;61.70;;;;;;5051966;28;20188;-71
2023/10/18 02:11:19;;;;;;;26.75;18.08;;;3.80;62.40;;;;;;5052093;28;20171;-71
2023/10/18 02:13:44;;;;;;;22.07;17.80;;;3.80;62.10;;;;;;5052158;28;20182;-70
2023/10/18 02:16:15;;;;;;;24.00;17.23;;;3.80;62.40;;;;;;5052084;28;20422;-69
2023/10/18 02:18:41;;;;;;;22.20;15.43;;;3.80;62.60;;;;;;5051653;28;20210;-70
2023/10/18 02:21:07;;;;;;;21.10;16.63;;;3.80;61.70;;;;;;5051953;28;20691;-71
2023/10/18 02:23:36;;;;;;;20.45;15.73;;;3.80;62.10;;;;;;5051926;28;20197;-70
2023/10/18 02:26:09;;;;;;;21.33;16.35;;;3.80;61.70;;;;;;5051842;28;20174;-70
2023/10/18 02:28:36;;;;;;;26.60;17.90;;;3.90;61.10;;;;;;5051714;28;20546;-71
2023/10/18 02:33:36;;;;;;;22.55;16.27;;;3.80;60.20;;;;;;5051795;28;20261;-71
2023/10/18 02:36:12;;;;;;;22.13;16.20;;;3.80;60.70;;;;;;5051977;28;20280;-70
2023/10/18 02:38:38;;;;;;;23.60;16.65;;;3.80;61.00;;;;;;5051345;28;20202;-71
2023/10/18 02:41:26;;;;;;;23.80;16.35;;;3.80;61.20;;;;;;5051547;28;20307;-70
2023/10/18 02:43:54;;;;;;;20.35;16.02;;;3.80;61.10;;;;;;5051570;28;20175;-69
2023/10/18 02:46:23;;;;;;;21.60;17.02;;;3.80;60.70;;;;;;5051467;28;20174;-70
2023/10/18 02:48:51;;;;;;;27.52;18.25;;;3.80;61.70;;;;;;5050751;28;20217;-71
2023/10/18 02:51:22;;;;;;;29.77;18.73;;;3.80;61.60;;;;;;5051396;28;20175;-70
2023/10/18 02:53:54;;;;;;;19.55;16.38;;;3.80;62.90;;;;;;5051431;28;20171;-72
2023/10/18 02:56:27;;;;;;;19.48;15.80;;;3.90;61.80;;;;;;5050945;28;20646;-72
2023/10/18 02:59:06;;;;;;;23.48;17.73;;;3.90;61.80;;;;;;5050951;28;20226;-71
2023/10/18 03:01:31;;;;;;;20.80;16.50;;;3.90;61.80;;;;;;5051372;28;20175;-72
2023/10/18 03:03:59;;;;;;;22.73;17.43;;;3.90;62.00;;;;;;5050891;28;20211;-70
2023/10/18 03:06:27;;;;;;;19.50;15.15;;;3.90;61.60;;;;;;5051474;28;20658;-71
2023/10/18 03:08:57;;;;;;;22.88;16.23;;;3.90;61.10;;;;;;5051056;28;20182;-70
2023/10/18 03:11:23;;;;;;;25.90;17.20;;;3.90;60.80;;;;;;5051516;28;20642;-71
2023/10/18 03:13:49;;;;;;;23.80;18.60;;;3.80;60.20;;;;;;5051178;28;20185;-71
2023/10/18 03:18:44;;;;;;;21.80;16.83;;;3.70;61.60;;;;;;5050898;28;20679;-71
2023/10/18 03:21:13;;;;;;;21.02;16.13;;;3.70;60.30;;;;;;5051085;28;20173;-72
2023/10/18 03:23:45;;;;;;;24.65;17.05;;;3.70;60.90;;;;;;5051140;28;20175;-70
2023/10/18 03:26:11;;;;;;;22.52;17.90;;;3.80;60.30;;;;;;5049807;28;20180;-71
2023/10/18 03:28:41;;;;;;;22.73;16.45;;;3.70;59.50;;;;;;5050955;28;20528;-70
2023/10/18 03:31:24;;;;;;;21.52;14.20;;;3.70;59.50;;;;;;5050912;28;20181;-70
2023/10/18 03:33:53;;;;;;;21.42;16.35;;;3.60;60.30;;;;;;5050932;28;20174;-71
2023/10/18 03:36:26;;;;;;;24.52;17.45;;;3.60;58.90;;;;;;5051167;28;20171;-70
2023/10/18 03:39:00;;;;;;;23.73;15.38;;;3.60;59.70;;;;;;5050638;28;20226;-70
2023/10/18 03:41:32;;;;;;;17.80;14.95;;;3.50;59.20;;;;;;5049367;28;20545;-70
2023/10/18 03:44:06;;;;;;;23.73;18.05;;;3.50;60.40;;;;;;5050252;28;20209;-71
2023/10/18 03:46:47;;;;;;;22.30;15.98;;;3.50;60.80;;;;;;5047569;28;20176;-71
2023/10/18 03:54:45;;;;;;;23.65;16.50;;;3.30;60.70;;;;;;5050681;28;20549;-71
2023/10/18 03:57:18;;;;;;;28.58;17.30;;;3.40;61.30;;;;;;5050802;28;20584;-70
2023/10/18 03:59:48;;;;;;;24.20;15.95;;;3.40;61.70;;;;;;5049627;28;20215;-71
2023/10/18 04:04:48;;;;;;;24.48;16.98;;;3.30;61.30;;;;;;5050793;28;20237;-70
2023/10/18 04:07:19;;;;;;;27.10;16.30;;;3.40;61.80;;;;;;5050724;28;20171;-70
2023/10/18 04:10:12;;;;;;;26.73;16.30;;;3.30;62.50;;;;;;5050764;28;20289;-71
2023/10/18 04:12:43;;;;;;;24.20;17.17;;;3.40;63.80;;;;;;5050814;28;20172;-70
2023/10/18 04:15:21;;;;;;;22.00;15.52;;;3.40;62.50;;;;;;5052741;28;20248;-72
2023/10/18 04:17:49;;;;;;;24.33;16.65;;;3.50;62.80;;;;;;5054187;28;20548;-72
2023/10/18 04:22:47;;;;;;;25.08;17.83;;;3.50;62.80;;;;;;5054680;28;20522;-71
2023/10/18 04:25:30;;;;;;;24.90;17.00;;;3.50;62.70;;;;;;5054538;28;20272;-71
2023/10/18 04:27:59;;;;;;;21.05;17.50;;;3.50;63.10;;;;;;5054096;28;20439;-71
2023/10/18 04:30:32;;;;;;;16.58;13.75;;;3.50;64.50;;;;;;5054388;28;20177;-72
2023/10/18 04:33:41;;;;;;;21.27;16.48;;;3.50;65.00;;;;;;5054705;28;20174;-70
2023/10/18 04:35:52;;;;;;;22.98;16.70;;;3.50;63.50;;;;;;5050712;28;20258;-71
2023/10/18 04:38:37;;;;;;;20.88;15.57;;;3.40;63.10;;;;;;5054194;28;20545;-71
2023/10/18 04:41:08;;;;;;;19.73;16.45;;;3.40;63.30;;;;;;5054037;28;20696;-71
2023/10/18 04:43:35;;;;;;;21.55;15.32;;;3.40;62.60;;;;;;5053983;28;20175;-71
2023/10/18 04:46:14;;;;;;;23.92;17.70;;;3.30;62.30;;;;;;5053783;28;20214;-71
2023/10/18 04:51:28;;;;;;;22.30;16.27;;;3.30;63.80;;;;;;5053983;28;20175;-71
2023/10/18 04:54:16;;;;;;;19.27;15.30;;;3.30;63.40;;;;;;5053572;28;20194;-71
2023/10/18 04:56:43;;;;;;;24.13;16.83;;;3.30;62.60;;;;;;5053458;28;20178;-72
2023/10/18 05:04:29;;;;;;;21.08;16.42;;;3.30;63.20;;;;;;5053509;28;20208;-71
2023/10/18 05:06:55;;;;;;;18.50;14.57;;;3.30;64.70;;;;;;5053357;28;20173;-71
2023/10/18 05:09:41;;;;;;;19.38;15.73;;;3.30;63.70;;;;;;5053609;28;20578;-71
2023/10/18 05:14:43;;;;;;;17.55;14.73;;;3.20;64.00;;;;;;5053168;28;20600;-71
2023/10/18 05:17:21;;;;;;;17.90;13.55;;;3.30;64.30;;;;;;5052970;28;20306;-71
2023/10/18 05:19:48;;;;;;;18.95;15.25;;;3.20;62.80;;;;;;5052952;28;20204;-70
2023/10/18 05:22:19;;;;;;;23.90;15.98;;;3.30;63.70;;;;;;5052949;28;20202;-71
2023/10/18 05:24:54;;;;;;;20.08;15.98;;;3.30;62.90;;;;;;5052777;28;20235;-71
2023/10/18 05:27:24;;;;;;;20.88;15.48;;;3.20;60.70;;;;;;5052914;28;20597;-72
2023/10/18 05:29:54;;;;;;;22.58;15.90;;;3.20;61.50;;;;;;5052975;28;20187;-73
2023/10/18 05:35:19;;;;;;;20.90;16.77;;;3.10;61.10;;;;;;5053176;28;20203;-70
2023/10/18 05:37:50;;;;;;;24.80;17.67;;;3.00;61.80;;;;;;5052707;28;20272;-69
2023/10/18 05:43:03;;;;;;;18.95;16.00;;;3.10;63.20;;;;;;5052826;28;20261;-72
2023/10/18 05:45:33;;;;;;;20.30;17.48;;;3.10;63.80;;;;;;5052594;28;20567;-68
2023/10/18 05:48:12;;;;;;;21.85;15.63;;;3.10;63.40;;;;;;5044235;28;20313;-68
2023/10/18 05:50:38;;;;;;;21.17;15.23;;;3.10;65.10;;;;;;5032510;28;20271;-68
2023/10/18 05:53:06;;;;;;;22.30;17.37;;;3.20;65.30;;;;;;5032572;28;20309;-70
2023/10/18 05:55:33;;;;;;;19.70;16.05;;;3.20;65.40;;;;;;5032440;28;20195;-70
2023/10/18 05:58:02;;;;;;;22.50;17.73;;;3.30;64.30;;;;;;5032227;28;20179;-69
2023/10/18 06:00:32;;;;;;;20.70;16.98;;;3.30;65.40;;;;;;5032425;28;20175;-69
2023/10/18 06:03:01;;;;;;;23.38;15.05;;;3.40;66.30;;;;;;5032282;28;20550;-69
2023/10/18 06:05:33;;;;;;;19.88;15.00;;;3.40;65.40;;;;;;5038825;28;20222;-69
2023/10/18 06:08:01;;;;;;;21.80;16.98;;;3.40;66.40;;;;;;5051831;28;20253;-69
2023/10/18 06:10:26;;;;;;;23.35;16.23;;;3.50;66.50;;;;;;5052762;28;20214;-69
2023/10/18 06:13:27;;;;;;;26.97;17.80;;;3.60;66.50;;;;;;5053549;28;20174;-69
2023/10/18 06:15:44;;;;;;;19.45;16.58;;;3.70;66.70;;;;;;5052491;28;20225;-69
2023/10/18 06:18:17;;;;;;;21.30;16.35;;;3.70;66.60;;;;;;5053508;28;20272;-70
2023/10/18 06:20:44;;;;;;;20.10;14.85;;;3.80;66.70;;;;;;5053439;28;20171;-69
2023/10/18 06:25:57;;;;;;;18.48;15.48;;;4.00;66.90;;;;;;5053754;28;20657;-69
2023/10/18 06:28:26;;;;;;;19.63;15.60;;;4.20;67.10;;;;;;5053367;28;20446;-69
2023/10/18 06:30:53;;;;;;;23.02;16.83;;;4.20;64.20;;;;;;5053718;28;20179;-68
2023/10/18 06:33:19;;;;;;;19.95;15.70;;;4.30;61.70;;;;;;5054391;28;20178;-68
2023/10/18 06:35:52;;;;;;;19.02;15.23;;;4.40;62.00;;;;;;5053410;28;20199;-68
2023/10/18 06:38:24;;;;;;;25.00;16.40;;;4.40;59.10;;;;;;5053406;28;20467;-68
2023/10/18 06:41:00;;;;;;;19.92;15.02;;;4.40;59.70;;;;;;5052431;28;20430;-69
2023/10/18 06:43:26;;;;;;;21.40;15.82;;;4.40;59.30;;;;;;5033197;28;20173;-68
2023/10/18 06:45:57;;;;;;;18.53;14.30;;;4.40;58.40;;;;;;5033894;28;20207;-70
2023/10/18 06:48:26;;;;;;;17.52;14.60;;;4.50;56.60;;;;;;5033562;28;20890;-68
2023/10/18 06:50:53;;;;;;;23.40;15.65;;;4.50;52.70;;;;;;5031590;28;20204;-70
2023/10/18 06:53:20;;;;;;;24.00;15.45;;;4.60;52.70;;;;;;5031572;28;20176;-70
2023/10/18 06:55:56;;;;;;;18.42;14.82;;;4.50;53.20;;;;;;5031364;28;20192;-70
2023/10/18 07:00:51;;;;;;;17.70;14.00;;;4.60;52.60;;;;;;5051697;28;20695;-70
2023/10/18 07:03:32;;;;;;;20.20;15.10;;;4.70;53.40;;;;;;5051729;28;20204;-72
2023/10/18 07:06:04;;;;;;;20.83;14.70;;;4.90;53.20;;;;;;5044163;28;20591;-71
2023/10/18 07:08:33;;;;;;;19.83;13.98;;;4.90;50.90;;;;;;5049309;28;20500;-69
2023/10/18 07:11:01;;;;;;;16.90;14.90;;;4.90;50.80;;;;;;5046900;28;20177;-70
2023/10/18 07:13:34;;;;;;;15.67;13.03;;;5.20;48.40;;;;;;5050142;28;20427;-71
2023/10/18 07:16:00;;;;;;;16.48;12.40;;;5.30;48.60;;;;;;5051332;28;20405;-70
2023/10/18 07:18:27;;;;;;;20.03;15.43;;;5.40;49.60;;;;;;5051085;28;20200;-70
2023/10/18 07:20:59;;;;;;;16.03;12.97;;;5.60;49.90;;;;;;5050512;28;20507;-70
2023/10/18 07:23:26;;;;;;;17.67;13.70;;;5.80;47.30;;;;;;5051118;28;20425;-71
2023/10/18 07:25:52;;;;;;;21.10;14.33;;;6.00;46.20;;;;;;5051325;28;20443;-70
2023/10/18 07:28:21;;;;;;;15.70;13.37;;;6.30;42.20;;;;;;5050849;28;20423;-70
2023/10/18 07:30:49;;;;;;;15.70;12.90;;;6.40;38.80;;;;;;5051465;28;20642;-70
2023/10/18 07:33:15;;;;;;;16.60;13.00;;;6.60;40.60;;;;;;5051402;28;20440;-70
2023/10/18 07:35:45;;;;;;;14.10;11.80;;;6.50;37.10;;;;;;5051033;28;20476;-71
2023/10/18 07:38:11;;;;;;;14.17;12.17;;;6.70;38.60;;;;;;5044985;28;20274;-73
2023/10/18 07:40:40;;;;;;;16.50;12.70;;;7.00;36.60;;;;;;5027650;28;20885;-71
2023/10/18 07:43:12;;;;;;;17.90;15.00;;;7.10;36.50;;;;;;5027462;28;20245;-70
2023/10/18 07:45:39;;;;;;;19.07;13.17;;;7.20;32.20;;;;;;5027484;28;20484;-71
2023/10/18 07:48:06;;;;;;;21.47;15.67;;;7.20;31.30;;;;;;5040549;28;20524;-71
2023/10/18 07:50:34;;;;;;;21.97;13.70;;;7.30;29.80;;;;;;5053214;28;20433;-71
2023/10/18 07:53:00;;;;;;;21.40;16.87;;;7.40;29.10;;;;;;5054938;28;20492;-71
2023/10/18 07:55:36;;;;;;;17.23;12.93;;;7.40;28.80;;;;;;5053417;28;20461;-72
2023/10/18 07:58:17;;;;;;;17.53;13.37;;;7.40;27.60;;;;;;5054648;28;20980;-68
2023/10/18 08:03:27;;;;;;;15.83;12.50;;;7.20;27.10;;;;;;5054681;28;20759;-72
2023/10/18 08:05:56;;;;;;;14.90;12.77;;;7.50;27.20;;;;;;5052238;23;20516;-71
2023/10/18 08:08:24;;;;;;;16.40;13.47;;;7.40;26.80;;;;;;5033062;28;20950;-71
2023/10/18 08:10:54;;;;;;;16.83;11.93;;;7.40;26.10;;;;;;5035103;28;20483;-71
2023/10/18 08:13:26;;;;;;;15.83;12.47;;;7.50;25.90;;;;;;5035126;28;20463;-70
2023/10/18 08:15:56;;;;;;;18.53;12.70;;;7.60;26.70;;;;;;5034771;28;20453;-71
2023/10/18 08:18:39;;;;;;;16.73;13.50;;;7.60;24.80;;;;;;5032218;28;20428;-71
2023/10/18 08:21:18;;;;;;;16.67;13.00;;;7.80;25.80;;;;;;5034618;28;20413;-71
2023/10/18 08:23:43;;;;;;;15.63;12.23;;;8.10;23.50;;;;;;5034889;28;20410;-71
2023/10/18 08:26:09;;;;;;;15.37;12.70;;;8.20;23.00;;;;;;5035145;28;20485;-71
2023/10/18 08:28:39;;;;;;;24.37;16.03;;;8.20;23.30;;;;;;5034394;28;20246;-71
2023/10/18 08:31:29;;;;;;;15.67;13.17;;;8.40;23.30;;;;;;5034931;28;20192;-71
2023/10/18 08:33:54;;;;;;;12.87;11.53;;;8.60;20.40;;;;;;5034503;28;20421;-71
2023/10/18 08:36:29;;;;;;;14.70;12.67;;;8.60;21.00;;;;;;5034685;28;20491;-71
2023/10/18 08:38:55;;;;;;;16.63;12.77;;;8.60;20.30;;;;;;5034629;28;20249;-72
2023/10/18 08:41:31;;;;;;;20.77;14.67;;;8.70;20.60;;;;;;5033012;28;20799;-71
2023/10/18 08:44:21;;;;;;;15.87;11.07;;;8.70;20.90;;;;;;5034925;28;20903;-71
2023/10/18 08:47:34;;;;;;;17.80;14.70;;;9.00;19.90;;;;;;5034490;28;20428;-71
2023/10/18 08:49:53;;;;;;;17.23;12.53;;;9.20;18.90;;;;;;5028362;28;20956;-71
2023/10/18 08:52:28;;;;;;;14.10;12.53;;;9.30;17.60;;;;;;5034460;28;20962;-72
2023/10/18 08:54:55;;;;;;;14.73;12.40;;;9.40;17.50;;;;;;5033859;28;20444;-71
2023/10/18 08:57:36;;;;;;;14.57;12.43;;;9.70;17.30;;;;;;5024090;28;20934;-71
2023/10/18 09:02:53;;;;;;;13.57;11.80;;;9.90;14.90;;;;;;5013793;28;20440;-71
2023/10/18 09:05:22;;;;;;;17.60;11.60;;;9.90;14.70;;;;;;5013738;28;20450;-68
2023/10/18 09:08:05;;;;;;;12.77;10.67;;;10.10;14.10;;;;;;5013644;28;20429;-69
2023/10/18 09:16:01;;;;;;;14.43;11.40;;;10.10;13.70;;;;;;5014137;28;20999;-71
2023/10/18 09:18:30;;;;;;;15.77;12.27;;;10.10;13.80;;;;;;5013843;28;20422;-72
2023/10/18 09:21:03;;;;;;;12.00;10.50;;;10.10;14.10;;;;;;5013849;28;20426;-72
2023/10/18 09:23:30;;;;;;;16.67;11.43;;;10.20;14.70;;;;;;5014136;28;20786;-71
2023/10/18 09:26:28;;;;;;;12.53;11.23;;;10.20;14.20;;;;;;5014020;28;20933;-73
2023/10/18 09:28:47;;;;;;;14.00;10.93;;;10.40;14.10;;;;;;5011808;28;20434;-72
2023/10/18 09:31:19;;;;;;;13.40;11.73;;;10.40;14.30;;;;;;5013248;28;20430;-71
2023/10/18 09:33:52;;;;;;;20.57;13.13;;;10.50;15.40;;;;;;5012748;28;20194;-72
2023/10/18 09:36:23;;;;;;;14.20;11.73;;;10.90;14.70;;;;;;5012447;28;20937;-71
2023/10/18 09:38:52;;;;;;;18.67;16.63;;;11.30;12.40;;;;;;5012168;28;20473;-72
2023/10/18 09:41:19;;;;;;;15.60;11.60;;;11.20;13.30;;;;;;5014265;28;20419;-71
2023/10/18 09:43:46;;;;;;;14.80;11.70;;;11.30;11.60;;;;;;5013960;28;20422;-71
2023/10/18 09:46:15;;;;;;;12.47;11.17;;;11.40;11.30;;;;;;5013742;28;20434;-72
2023/10/18 09:48:44;;;;;;;12.37;10.33;;;11.60;9.90;;;;;;5013594;28;20416;-71
2023/10/18 09:51:10;;;;;;;12.37;11.03;;;11.60;8.60;;;;;;5013947;28;20423;-72
2023/10/18 09:53:49;;;;;;;13.63;8.83;;;11.70;10.30;;;;;;5012401;28;20931;-71
2023/10/18 09:56:17;;;;;;;14.53;11.13;;;11.80;8.60;;;;;;5013758;28;20438;-71
2023/10/18 09:58:48;;;;;;;11.20;10.00;;;11.90;9.80;;;;;;5013557;28;20469;-71
2023/10/18 10:01:30;;;;;;;12.83;10.80;;;12.00;9.20;;;;;;5013415;28;20418;-71
2023/10/18 10:03:58;;;;;;;19.63;12.23;;;12.10;10.10;;;;;;5013774;28;20902;-72
2023/10/18 10:06:27;;;;;;;11.57;9.80;;;12.40;9.40;;;;;;5011833;28;20462;-72
2023/10/18 10:09:08;;;;;;;11.67;9.97;;;12.50;8.50;;;;;;5013157;28;20418;-72
2023/10/18 10:11:36;;;;;;;11.87;10.00;;;12.40;9.30;;;;;;5011475;28;20445;-72
2023/10/18 10:14:07;;;;;;;13.80;12.13;;;12.40;9.20;;;;;;5013706;28;20910;-73
2023/10/18 10:16:34;;;;;;;12.10;10.90;;;12.50;10.20;;;;;;5014640;28;20430;-75
2023/10/18 10:19:07;;;;;;;11.80;9.47;;;12.80;9.00;;;;;;5013289;28;20463;-72
2023/10/18 10:21:34;;;;;;;14.00;10.70;;;12.60;9.70;;;;;;5013415;28;20501;-70
2023/10/18 10:24:14;;;;;;;14.30;11.10;;;12.80;9.60;;;;;;5015111;28;20489;-70
2023/10/18 10:26:47;;;;;;;12.53;10.77;;;13.00;15.30;;;;;;5011289;28;20802;-71
2023/10/18 10:29:33;;;;;;;14.53;12.17;;;12.90;8.90;;;;;;5012953;28;20828;-71
2023/10/18 10:32:04;;;;;;;13.20;10.20;;;13.00;8.90;;;;;;5023149;28;20815;-72
2023/10/18 10:34:34;;;;;;;12.63;11.00;;;13.10;8.90;;;;;;5032261;28;20518;-71
2023/10/18 10:37:09;;;;;;;13.77;10.20;;;13.50;7.80;;;;;;5032314;28;20782;-70
2023/10/18 10:39:43;;;;;;;11.80;10.63;;;13.40;7.50;;;;;;5033267;28;20461;-70
2023/10/18 10:43:09;;;;;;;11.03;9.10;;;13.30;7.50;;;;;;5026239;28;20437;-69
2023/10/18 10:47:46;;;;;;;12.33;10.67;;;13.10;8.60;;;;;;5032692;28;20460;-70
2023/10/18 10:50:42;;;;;;;12.83;11.33;;;13.20;9.00;;;;;;5027368;28;20431;-71
2023/10/18 10:53:15;;;;;;;15.37;13.27;;;13.50;9.80;;;;;;5017857;28;20426;-70
2023/10/18 10:55:43;;;;;;;15.70;13.60;;;13.90;5.50;;;;;;5032060;28;21002;-71
2023/10/18 10:58:16;;;;;;;11.70;10.50;;;14.20;4.80;;;;;;5031408;28;20444;-71
2023/10/18 11:01:02;;;;;;;13.53;11.60;;;14.10;4.10;;;;;;5016678;28;20509;-70
2023/10/18 11:03:46;;;;;;;11.70;10.50;;;14.30;3.60;;;;;;5031862;28;20911;-71
2023/10/18 11:06:12;;;;;;;18.97;11.57;;;14.10;4.50;;;;;;5031731;28;20817;-71
2023/10/18 11:08:39;;;;;;;14.43;10.70;;;14.20;5.20;;;;;;5030391;28;20454;-70
2023/10/18 11:11:06;;;;;;;15.97;11.20;;;14.30;5.40;;;;;;5030607;28;20186;-70
2023/10/18 11:13:36;;;;;;;13.57;12.00;;;14.80;4.00;;;;;;5031572;28;20444;-71
2023/10/18 11:16:03;;;;;;;19.70;14.03;;;14.90;3.20;;;;;;5031901;28;20455;-71
2023/10/18 11:18:34;;;;;;;17.97;11.63;;;14.80;3.20;;;;;;5030477;28;20433;-71
2023/10/18 11:24:04;;;;;;;12.77;11.47;;;14.60;3.60;;;;;;5024244;28;20515;-71
2023/10/18 11:26:38;;;;;;;12.93;10.93;;;14.50;3.90;;;;;;5034306;28;20512;-71
2023/10/18 11:29:05;;;;;;;15.17;11.27;;;14.60;3.80;;;;;;5035248;28;20956;-72
2023/10/18 11:31:32;;;;;;;11.20;9.90;;;15.00;2.60;;;;;;5035370;28;20835;-71
2023/10/18 11:34:05;;;;;;;15.03;11.00;;;15.20;1.80;;;;;;5034323;28;20436;-71
2023/10/18 11:36:32;;;;;;;17.97;9.87;;;15.00;2.30;;;;;;5035189;28;21191;-71
2023/10/18 11:41:44;;;;;;;14.00;10.57;;;14.90;2.90;;;;;;5035512;28;20437;-71
2023/10/18 11:44:16;;;;;;;14.80;11.80;;;14.80;3.20;;;;;;5034063;28;20487;-72
2023/10/18 11:46:56;;;;;;;14.70;12.50;;;14.60;3.90;;;;;;5034596;28;20409;-72
2023/10/18 11:49:32;;;;;;;12.17;10.97;;;14.70;3.90;;;;;;5035176;28;20440;-70
2023/10/18 11:51:58;;;;;;;18.30;11.77;;;14.70;3.70;;;;;;5035054;28;20436;-70
2023/10/18 11:54:34;;;;;;;11.73;9.57;;;14.70;3.50;;;;;;5034878;28;20702;-70
2023/10/18 11:57:05;;;;;;;11.73;9.63;;;14.70;3.10;;;;;;5034834;28;20587;-70
2023/10/18 11:59:49;;;;;;;11.87;10.40;;;14.60;2.50;;;;;;5035482;28;20461;-70
2023/10/18 12:02:14;;;;;;;14.07;10.63;;;14.40;3.10;;;;;;5034853;28;20422;-71
2023/10/18 12:04:40;;;;;;;10.43;9.33;;;14.40;2.10;;;;;;5034380;28;20469;-71
2023/10/18 12:07:08;;;;;;;11.53;8.83;;;14.60;2.20;;;;;;5034647;28;20638;-71
2023/10/18 12:09:42;;;;;;;10.90;8.97;;;14.70;2.40;;;;;;5034801;28;20927;-69
2023/10/18 12:12:19;;;;;;;12.67;9.70;;;14.80;1.60;;;;;;5034250;28;20806;-71
2023/10/18 12:14:45;;;;;;;10.70;8.80;;;14.70;1.80;;;;;;5034778;28;20429;-70
2023/10/18 12:17:13;;;;;;;10.70;9.23;;;14.70;1.30;;;;;;5034727;28;20421;-71
2023/10/18 12:19:39;;;;;;;13.00;8.87;;;14.90;1.50;;;;;;5034791;28;20461;-71
2023/10/18 12:22:07;;;;;;;9.87;7.33;;;15.00;1.00;;;;;;5034937;28;20485;-71
2023/10/18 12:24:36;;;;;;;14.00;9.80;;;15.00;1.30;;;;;;5034474;28;20450;-71
2023/10/18 12:29:46;;;;;;;10.10;8.50;;;15.00;1.00;;;;;;5034912;28;20432;-71
2023/10/18 12:32:25;;;;;;;8.97;6.70;;;14.80;1.00;;;;;;5034566;28;20418;-70
2023/10/18 12:34:57;;;;;;;9.43;7.43;;;14.90;1.00;;;;;;5033508;28;20691;-69
2023/10/18 12:37:24;;;;;;;13.23;8.23;;;15.20;1.00;;;;;;5034025;28;20769;-70
2023/10/18 12:39:50;;;;;;;10.77;9.63;;;15.60;1.00;;;;;;5033142;28;20464;-69
2023/10/18 12:42:19;;;;;;;9.63;7.10;;;15.80;1.00;;;;;;5034541;28;20800;-71
2023/10/18 12:44:46;;;;;;;10.97;8.20;;;16.20;1.00;;;;;;5034356;28;20720;-71
2023/10/18 12:47:13;;;;;;;9.37;8.47;;;16.40;1.00;;;;;;5034274;28;20777;-71
2023/10/18 12:49:44;;;;;;;9.57;8.43;;;16.60;1.00;;;;;;5034278;28;20410;-71
2023/10/18 12:52:57;;;;;;;10.07;8.77;;;16.60;1.00;;;;;;5034574;28;20414;-69
2023/10/18 12:55:00;;;;;;;13.57;10.23;;;16.10;1.00;;;;;;5026577;28;21014;-71
2023/10/18 12:57:32;;;;;;;9.53;8.10;;;15.80;1.00;;;;;;5034077;28;20895;-70
2023/10/18 13:05:13;;;;;;;10.97;9.63;;;15.30;1.00;;;;;;5033790;28;20868;-70
2023/10/18 13:07:43;;;;;;;13.60;10.07;;;15.50;1.00;;;;;;5033778;28;20928;-71
2023/10/18 13:10:12;;;;;;;9.60;8.23;;;15.40;1.00;;;;;;5033981;28;20786;-70
2023/10/18 13:12:43;;;;;;;10.43;8.77;;;15.40;1.00;;;;;;5033714;28;20421;-70
2023/10/18 13:15:10;;;;;;;11.93;8.93;;;15.30;1.00;;;;;;5033675;28;20966;-71
2023/10/18 13:17:36;;;;;;;12.37;10.47;;;15.30;1.00;;;;;;5033616;28;20410;-71
2023/10/18 13:20:06;;;;;;;10.27;9.13;;;15.10;1.20;;;;;;5033825;28;20460;-71
2023/10/18 13:22:34;;;;;;;14.37;11.30;;;15.00;3.30;;;;;;5033574;28;20954;-72
2023/10/18 13:25:07;;;;;;;12.17;11.00;;;14.70;3.90;;;;;;5032291;28;20449;-71
2023/10/18 13:27:37;;;;;;;15.00;12.30;;;14.50;5.50;;;;;;5033399;28;20761;-71
2023/10/18 13:30:31;;;;;;;13.70;10.60;;;14.60;5.80;;;;;;5032609;28;20433;-71
2023/10/18 13:32:50;;;;;;;12.07;9.73;;;14.50;6.40;;;;;;5033266;28;20436;-70
2023/10/18 13:35:16;;;;;;;16.00;10.87;;;14.20;7.40;;;;;;5033437;28;20752;-72
2023/10/18 13:37:44;;;;;;;14.10;10.67;;;13.90;7.90;;;;;;5028444;28;20437;-70
2023/10/18 13:40:18;;;;;;;12.00;9.83;;;13.90;9.30;;;;;;5028147;28;20211;-71
2023/10/18 13:42:49;;;;;;;13.70;11.10;;;14.00;9.50;;;;;;5032535;28;20430;-72
2023/10/18 13:45:15;;;;;;;14.33;10.60;;;14.00;9.50;;;;;;5027642;28;20459;-72
2023/10/18 13:47:41;;;;;;;12.53;11.20;;;14.20;9.70;;;;;;5009213;28;20422;-70
2023/10/18 13:50:11;;;;;;;14.53;11.83;;;14.20;10.90;;;;;;5009633;28;20221;-68
2023/10/18 13:52:38;;;;;;;12.97;11.33;;;14.00;12.40;;;;;;5009461;28;20508;-68
2023/10/18 13:55:04;;;;;;;16.87;12.60;;;13.80;15.60;;;;;;5011519;28;20438;-68
2023/10/18 13:57:30;;;;;;;14.07;11.00;;;13.50;16.50;;;;;;5022398;28;20862;-69
2023/10/18 13:59:59;;;;;;;12.77;11.47;;;13.30;20.70;;;;;;5032957;28;20483;-69